createdAt,value
2022-11-14T00:00:11.337Z,94.87
2022-11-14T00:01:11.171Z,95.39
2022-11-14T00:02:11.159Z,96.31
2022-11-14T00:03:11.202Z,96.94
2022-11-14T00:04:11.130Z,96.31
2022-11-14T00:05:11.115Z,96.11
2022-11-14T00:06:11.125Z,95.80
2022-11-14T00:07:11.139Z,96.05
2022-11-14T00:08:11.085Z,96.47
2022-11-14T00:09:11.076Z,96.47
2022-11-14T00:10:11.067Z,96.15
2022-11-14T00:11:11.072Z,95.22
2022-11-14T00:12:11.036Z,96.09
2022-11-14T00:13:11.025Z,97.03
2022-11-14T00:14:11.014Z,97.29
2022-11-14T00:15:11.005Z,96.67
2022-11-14T00:16:11.033Z,96.05
2022-11-14T00:17:11.005Z,96.05
2022-11-14T00:18:10.973Z,95.74
2022-11-14T00:19:10.954Z,95.32
2022-11-14T00:20:10.952Z,95.32
2022-11-14T00:21:10.952Z,95.22
2022-11-14T00:22:10.923Z,95.53
2022-11-14T00:23:10.934Z,95.89
2022-11-14T00:24:10.906Z,95.99
2022-11-14T00:25:10.896Z,96.20
2022-11-14T00:26:10.879Z,96.09
2022-11-14T00:27:10.882Z,95.64
2022-11-14T00:28:10.856Z,95.16
2022-11-14T00:29:10.867Z,95.68
2022-11-14T00:30:10.843Z,95.99
2022-11-14T00:31:10.821Z,95.57
2022-11-14T00:32:10.813Z,95.47
2022-11-14T00:33:12.038Z,96.09
2022-11-14T00:34:10.792Z,96.45
2022-11-14T00:35:10.825Z,96.55
2022-11-14T00:36:10.773Z,96.76
2022-11-14T00:37:10.754Z,97.17
2022-11-14T00:38:10.752Z,97.38
2022-11-14T00:39:10.732Z,97.28
2022-11-14T00:40:10.722Z,96.97
2022-11-14T00:41:10.730Z,96.55
2022-11-14T00:42:10.701Z,96.24
2022-11-14T00:43:10.693Z,96.45
2022-11-14T00:44:10.679Z,96.66
2022-11-14T00:45:10.669Z,97.07
2022-11-14T00:46:10.661Z,97.07
2022-11-14T00:47:10.650Z,97.17
2022-11-14T00:48:10.630Z,96.97
2022-11-14T00:49:10.620Z,96.55
2022-11-14T00:50:10.610Z,97.38
2022-11-14T00:51:10.598Z,97.28
2022-11-14T00:52:10.611Z,97.49
2022-11-14T00:53:10.571Z,97.17
2022-11-14T00:54:10.696Z,97.28
2022-11-14T00:55:10.977Z,96.86
2022-11-14T00:56:10.549Z,97.49
2022-11-14T00:57:10.534Z,97.07
2022-11-14T00:58:10.540Z,97.17
2022-11-14T00:59:10.508Z,97.24
2022-11-14T01:00:10.505Z,96.51
2022-11-14T01:01:10.526Z,96.34
2022-11-14T01:02:10.469Z,96.34
2022-11-14T01:03:10.458Z,95.83
2022-11-14T01:04:13.548Z,96.66
2022-11-14T01:05:10.453Z,97.17
2022-11-14T01:06:10.430Z,97.49
2022-11-14T01:07:10.417Z,97.24
2022-11-14T01:08:10.408Z,96.72
2022-11-14T01:09:10.448Z,96.09
2022-11-14T01:10:10.412Z,96.20
2022-11-14T01:11:10.368Z,95.78
2022-11-14T01:12:10.359Z,96.20
2022-11-14T01:13:10.348Z,96.45
2022-11-14T01:14:10.354Z,96.61
2022-11-14T01:15:10.327Z,96.72
2022-11-14T01:16:10.337Z,96.72
2022-11-14T01:17:10.297Z,95.99
2022-11-14T01:18:10.298Z,96.45
2022-11-14T01:19:10.279Z,96.34
2022-11-14T01:20:10.282Z,96.34
2022-11-14T01:21:10.257Z,96.76
2022-11-14T01:22:10.267Z,96.45
2022-11-14T01:23:10.236Z,96.24
2022-11-14T01:24:10.226Z,96.14
2022-11-14T01:25:10.217Z,96.24
2022-11-14T01:26:10.206Z,96.66
2022-11-14T01:27:10.217Z,96.66
2022-11-14T01:28:10.186Z,96.66
2022-11-14T01:29:10.165Z,96.66
2022-11-14T01:30:10.156Z,96.34
2022-11-14T01:31:10.146Z,97.17
2022-11-14T01:32:10.136Z,96.97
2022-11-14T01:33:10.145Z,96.34
2022-11-14T01:34:10.115Z,96.34
2022-11-14T01:35:10.097Z,95.93
2022-11-14T01:36:10.096Z,95.62
2022-11-14T01:37:10.075Z,95.31
2022-11-14T01:38:10.073Z,95.10
2022-11-14T01:39:10.106Z,95.36
2022-11-14T01:40:10.045Z,96.50
2022-11-14T01:41:10.035Z,96.70
2022-11-14T01:42:10.035Z,96.76
2022-11-14T01:43:10.016Z,96.91
2022-11-14T01:44:10.004Z,97.02
2022-11-14T01:45:10.005Z,96.91
2022-11-14T01:46:09.986Z,97.33
2022-11-14T01:47:09.976Z,96.81
2022-11-14T01:48:09.965Z,96.55
2022-11-14T01:49:09.944Z,96.29
2022-11-14T01:50:09.937Z,96.39
2022-11-14T01:51:09.946Z,96.29
2022-11-14T01:52:09.913Z,96.81
2022-11-14T01:53:09.905Z,96.39
2022-11-14T01:54:09.900Z,96.81
2022-11-14T01:55:09.900Z,97.16
2022-11-14T01:56:09.908Z,98.41
2022-11-14T01:57:09.853Z,99.03
2022-11-14T01:58:09.844Z,99.03
2022-11-14T01:59:09.832Z,99.34
2022-11-14T02:00:09.825Z,99.65
2022-11-14T02:01:09.875Z,99.40
2022-11-14T02:02:09.823Z,98.68
2022-11-14T02:03:09.783Z,97.33
2022-11-14T02:04:14.149Z,97.22
2022-11-14T02:05:10.764Z,97.22
2022-11-14T02:06:09.752Z,96.81
2022-11-14T02:07:09.768Z,96.50
2022-11-14T02:08:09.764Z,96.19
2022-11-14T02:09:09.722Z,96.60
2022-11-14T02:10:09.711Z,96.39
2022-11-14T02:11:09.693Z,96.29
2022-11-14T02:12:09.690Z,95.98
2022-11-14T02:13:09.671Z,95.56
2022-11-14T02:14:09.692Z,96.12
2022-11-14T02:15:09.652Z,96.54
2022-11-14T02:16:09.641Z,96.29
2022-11-14T02:17:29.068Z,96.44
2022-11-14T02:18:10.624Z,96.33
2022-11-14T02:19:09.602Z,96.33
2022-11-14T02:20:09.610Z,96.75
2022-11-14T02:21:09.580Z,97.06
2022-11-14T02:22:09.571Z,96.95
2022-11-14T02:23:09.562Z,97.16
2022-11-14T02:24:09.553Z,97.27
2022-11-14T02:25:13.873Z,97.06
2022-11-14T02:26:09.532Z,96.85
2022-11-14T02:27:09.521Z,96.85
2022-11-14T02:28:09.510Z,96.12
2022-11-14T02:29:09.491Z,96.23
2022-11-14T02:30:09.490Z,96.23
2022-11-14T02:31:09.499Z,96.85
2022-11-14T02:32:10.865Z,96.54
2022-11-14T02:33:10.981Z,97.27
2022-11-14T02:34:09.440Z,96.85
2022-11-14T02:35:09.430Z,96.95
2022-11-14T02:36:09.420Z,96.95
2022-11-14T02:37:09.420Z,96.54
2022-11-14T02:38:09.399Z,96.12
2022-11-14T02:39:09.381Z,96.75
2022-11-14T02:40:16.755Z,97.27
2022-11-14T02:41:09.362Z,96.85
2022-11-14T02:42:09.354Z,96.02
2022-11-14T02:43:09.361Z,96.64
2022-11-14T02:44:09.334Z,96.64
2022-11-14T02:45:09.329Z,96.85
2022-11-14T02:46:09.303Z,96.33
2022-11-14T02:47:09.295Z,95.71
2022-11-14T02:48:09.304Z,95.92
2022-11-14T02:49:09.276Z,96.33
2022-11-14T02:50:09.262Z,97.68
2022-11-14T02:51:09.253Z,98.20
2022-11-14T02:52:09.242Z,98.51
2022-11-14T02:53:09.233Z,98.10
2022-11-14T02:54:09.282Z,98.05
2022-11-14T02:55:09.203Z,97.06
2022-11-14T02:56:09.195Z,96.95
2022-11-14T02:57:09.182Z,96.95
2022-11-14T02:58:09.162Z,96.85
2022-11-14T02:59:09.163Z,97.37
2022-11-14T03:00:14.557Z,97.58
2022-11-14T03:01:20.875Z,97.58
2022-11-14T03:02:10.192Z,97.16
2022-11-14T03:03:09.116Z,96.75
2022-11-14T03:04:09.100Z,96.54
2022-11-14T03:05:09.103Z,96.95
2022-11-14T03:06:09.107Z,96.75
2022-11-14T03:07:09.134Z,96.12
2022-11-14T03:08:09.056Z,95.19
2022-11-14T03:09:09.052Z,95.13
2022-11-14T03:10:09.032Z,96.06
2022-11-14T03:11:09.041Z,95.86
2022-11-14T03:12:09.012Z,95.86
2022-11-14T03:13:08.999Z,95.34
2022-11-14T03:14:08.994Z,95.03
2022-11-14T03:15:08.980Z,94.71
2022-11-14T03:16:08.969Z,95.03
2022-11-14T03:17:08.979Z,95.17
2022-11-14T03:18:08.949Z,95.13
2022-11-14T03:19:08.945Z,94.76
2022-11-14T03:20:08.919Z,94.76
2022-11-14T03:21:08.909Z,95.28
2022-11-14T03:22:08.901Z,95.28
2022-11-14T03:23:08.911Z,95.07
2022-11-14T03:24:08.877Z,94.86
2022-11-14T03:25:08.874Z,94.86
2022-11-14T03:26:08.867Z,94.86
2022-11-14T03:27:08.850Z,95.28
2022-11-14T03:28:08.829Z,96.00
2022-11-14T03:29:08.850Z,96.83
2022-11-14T03:30:08.808Z,97.04
2022-11-14T03:31:08.799Z,97.14
2022-11-14T03:32:08.787Z,96.52
2022-11-14T03:33:08.777Z,97.14
2022-11-14T03:34:08.760Z,97.45
2022-11-14T03:35:08.778Z,97.45
2022-11-14T03:36:08.746Z,97.45
2022-11-14T03:37:08.734Z,97.56
2022-11-14T03:38:08.720Z,97.77
2022-11-14T03:39:08.708Z,97.56
2022-11-14T03:40:08.698Z,97.72
2022-11-14T03:41:08.707Z,97.52
2022-11-14T03:42:08.677Z,97.10
2022-11-14T03:43:08.668Z,96.89
2022-11-14T03:44:08.649Z,96.79
2022-11-14T03:45:08.645Z,96.79
2022-11-14T03:46:08.629Z,96.37
2022-11-14T03:47:08.637Z,96.27
2022-11-14T03:48:08.608Z,96.06
2022-11-14T03:49:08.598Z,96.17
2022-11-14T03:50:08.591Z,96.27
2022-11-14T03:51:08.585Z,96.17
2022-11-14T03:52:08.595Z,95.96
2022-11-14T03:53:08.557Z,95.65
2022-11-14T03:54:08.537Z,95.65
2022-11-14T03:55:08.528Z,95.54
2022-11-14T03:56:08.515Z,95.59
2022-11-14T03:57:08.506Z,95.17
2022-11-14T03:58:08.517Z,94.96
2022-11-14T03:59:08.485Z,94.86
2022-11-14T04:00:08.483Z,94.24
2022-11-14T04:01:08.546Z,93.97
2022-11-14T04:02:08.454Z,93.87
2022-11-14T04:03:08.444Z,94.07
2022-11-14T04:04:08.437Z,94.18
2022-11-14T04:05:08.426Z,94.59
2022-11-14T04:06:08.406Z,94.53
2022-11-14T04:07:08.461Z,94.32
2022-11-14T04:08:08.391Z,94.84
2022-11-14T04:09:08.374Z,95.15
2022-11-14T04:10:08.386Z,95.05
2022-11-14T04:11:08.349Z,94.84
2022-11-14T04:12:12.831Z,94.53
2022-11-14T04:13:09.324Z,94.32
2022-11-14T04:14:08.315Z,94.43
2022-11-14T04:15:08.305Z,94.64
2022-11-14T04:16:08.417Z,94.64
2022-11-14T04:17:08.284Z,94.43
2022-11-14T04:18:08.265Z,94.26
2022-11-14T04:19:08.263Z,94.78
2022-11-14T04:20:08.244Z,95.83
2022-11-14T04:21:08.261Z,95.78
2022-11-14T04:22:08.222Z,95.57
2022-11-14T04:23:08.214Z,95.36
2022-11-14T04:24:10.920Z,95.15
2022-11-14T04:25:08.197Z,95.26
2022-11-14T04:26:08.180Z,95.26
2022-11-14T04:27:08.182Z,95.57
2022-11-14T04:28:08.154Z,95.67
2022-11-14T04:29:08.144Z,95.78
2022-11-14T04:30:08.140Z,95.47
2022-11-14T04:31:08.123Z,95.57
2022-11-14T04:32:08.134Z,95.62
2022-11-14T04:33:08.104Z,95.30
2022-11-14T04:34:08.084Z,94.37
2022-11-14T04:35:08.082Z,94.37
2022-11-14T04:36:08.063Z,94.57
2022-11-14T04:37:08.053Z,94.78
2022-11-14T04:38:08.061Z,94.89
2022-11-14T04:39:08.054Z,94.82
2022-11-14T04:40:08.021Z,94.62
2022-11-14T04:41:08.011Z,96.28
2022-11-14T04:42:08.001Z,96.97
2022-11-14T04:43:08.012Z,97.59
2022-11-14T04:44:07.971Z,98.53
2022-11-14T04:45:08.063Z,98.53
2022-11-14T04:46:07.953Z,98.80
2022-11-14T04:47:07.943Z,98.43
2022-11-14T04:48:07.923Z,98.90
2022-11-14T04:49:07.940Z,98.80
2022-11-14T04:50:07.909Z,98.27
2022-11-14T04:51:07.898Z,97.81
2022-11-14T04:52:07.883Z,97.75
2022-11-14T04:53:07.872Z,97.61
2022-11-14T04:54:07.859Z,97.40
2022-11-14T04:55:07.868Z,97.19
2022-11-14T04:56:07.851Z,96.98
2022-11-14T04:57:07.829Z,97.03
2022-11-14T04:58:07.817Z,97.34
2022-11-14T04:59:07.808Z,96.98
2022-11-14T05:00:07.810Z,96.88
2022-11-14T05:01:07.837Z,97.09
2022-11-14T05:02:07.768Z,96.67
2022-11-14T05:03:07.758Z,96.15
2022-11-14T05:04:07.749Z,96.04
2022-11-14T05:05:07.751Z,95.73
2022-11-14T05:06:07.749Z,95.26
2022-11-14T05:07:07.756Z,95.26
2022-11-14T05:08:07.698Z,95.57
2022-11-14T05:09:07.706Z,95.67
2022-11-14T05:10:07.678Z,95.47
2022-11-14T05:11:07.669Z,95.26
2022-11-14T05:12:07.678Z,94.95
2022-11-14T05:13:07.647Z,94.68
2022-11-14T05:14:07.636Z,94.78
2022-11-14T05:15:07.628Z,94.68
2022-11-14T05:16:07.607Z,94.37
2022-11-14T05:17:07.609Z,94.78
2022-11-14T05:18:07.621Z,94.68
2022-11-14T05:19:07.667Z,94.47
2022-11-14T05:20:07.570Z,94.26
2022-11-14T05:21:07.557Z,94.10
2022-11-14T05:22:07.547Z,94.10
2022-11-14T05:23:07.553Z,93.27
2022-11-14T05:24:07.546Z,93.48
2022-11-14T05:25:07.520Z,93.48
2022-11-14T05:26:07.507Z,93.79
2022-11-14T05:27:07.486Z,93.41
2022-11-14T05:28:07.475Z,93.73
2022-11-14T05:29:07.486Z,94.45
2022-11-14T05:30:07.455Z,94.98
2022-11-14T05:31:07.467Z,95.18
2022-11-14T05:32:08.597Z,94.76
2022-11-14T05:33:07.425Z,94.87
2022-11-14T05:34:07.414Z,94.87
2022-11-14T05:35:07.416Z,94.56
2022-11-14T05:36:07.386Z,94.56
2022-11-14T05:37:07.377Z,95.60
2022-11-14T05:38:07.366Z,96.70
2022-11-14T05:39:07.357Z,97.43
2022-11-14T05:40:07.367Z,97.43
2022-11-14T05:41:07.338Z,97.38
2022-11-14T05:42:07.321Z,96.86
2022-11-14T05:43:07.314Z,96.97
2022-11-14T05:44:07.295Z,96.86
2022-11-14T05:45:07.295Z,97.07
2022-11-14T05:46:07.284Z,96.86
2022-11-14T05:47:07.263Z,96.66
2022-11-14T05:48:07.257Z,96.24
2022-11-14T05:49:07.244Z,96.34
2022-11-14T05:50:07.245Z,96.55
2022-11-14T05:51:07.243Z,96.97
2022-11-14T05:52:07.205Z,97.59
2022-11-14T05:53:07.203Z,98.27
2022-11-14T05:54:07.185Z,98.59
2022-11-14T05:55:07.173Z,99.01
2022-11-14T05:56:07.162Z,98.85
2022-11-14T05:57:07.173Z,98.23
2022-11-14T05:58:07.144Z,97.61
2022-11-14T05:59:07.133Z,96.88
2022-11-14T06:00:07.123Z,95.89
2022-11-14T06:01:07.114Z,95.47
2022-11-14T06:02:07.173Z,95.89
2022-11-14T06:03:07.089Z,95.99
2022-11-14T06:04:07.071Z,96.72
2022-11-14T06:05:07.076Z,97.13
2022-11-14T06:06:07.051Z,97.19
2022-11-14T06:07:07.077Z,96.82
2022-11-14T06:08:07.053Z,96.88
2022-11-14T06:09:07.024Z,96.47
2022-11-14T06:10:07.012Z,96.15
2022-11-14T06:11:06.995Z,95.94
2022-11-14T06:12:06.982Z,95.78
2022-11-14T06:13:06.972Z,95.94
2022-11-14T06:14:10.461Z,96.36
2022-11-14T06:15:06.951Z,96.78
2022-11-14T06:16:06.930Z,96.98
2022-11-14T06:17:06.929Z,96.94
2022-11-14T06:18:06.910Z,96.94
2022-11-14T06:19:06.900Z,96.52
2022-11-14T06:20:06.920Z,96.11
2022-11-14T06:21:06.891Z,96.21
2022-11-14T06:22:06.879Z,96.62
2022-11-14T06:23:06.860Z,96.48
2022-11-14T06:24:06.844Z,96.27
2022-11-14T06:25:06.840Z,96.27
2022-11-14T06:26:06.846Z,96.37
2022-11-14T06:27:06.819Z,96.27
2022-11-14T06:28:06.798Z,96.27
2022-11-14T06:29:06.810Z,96.27
2022-11-14T06:30:06.790Z,96.37
2022-11-14T06:31:06.785Z,96.75
2022-11-14T06:32:06.769Z,96.44
2022-11-14T06:33:06.740Z,96.23
2022-11-14T06:34:06.733Z,96.44
2022-11-14T06:35:06.719Z,96.64
2022-11-14T06:36:06.716Z,96.44
2022-11-14T06:37:06.719Z,96.70
2022-11-14T06:38:06.699Z,96.19
2022-11-14T06:39:06.722Z,96.70
2022-11-14T06:40:06.688Z,96.39
2022-11-14T06:41:06.703Z,96.70
2022-11-14T06:42:06.649Z,96.50
2022-11-14T06:43:06.661Z,96.50
2022-11-14T06:44:06.629Z,95.98
2022-11-14T06:45:06.618Z,95.67
2022-11-14T06:46:06.607Z,96.24
2022-11-14T06:47:06.588Z,96.45
2022-11-14T06:48:06.577Z,96.24
2022-11-14T06:49:06.588Z,96.03
2022-11-14T06:50:06.565Z,96.14
2022-11-14T06:51:06.555Z,96.24
2022-11-14T06:52:06.532Z,96.14
2022-11-14T06:53:06.550Z,95.83
2022-11-14T06:54:06.516Z,95.83
2022-11-14T06:55:06.642Z,95.83
2022-11-14T06:56:06.487Z,95.93
2022-11-14T06:57:06.478Z,95.93
2022-11-14T06:58:06.836Z,95.93
2022-11-14T06:59:06.475Z,97.24
2022-11-14T07:00:06.446Z,97.13
2022-11-14T07:01:06.447Z,96.82
2022-11-14T07:02:06.417Z,96.82
2022-11-14T07:03:06.444Z,96.78
2022-11-14T07:04:06.396Z,96.88
2022-11-14T07:05:06.386Z,96.98
2022-11-14T07:06:06.451Z,96.83
2022-11-14T07:07:06.399Z,96.42
2022-11-14T07:08:06.353Z,96.21
2022-11-14T07:09:06.347Z,96.42
2022-11-14T07:10:06.335Z,96.31
2022-11-14T07:11:06.323Z,96.21
2022-11-14T07:12:06.329Z,96.17
2022-11-14T07:13:06.295Z,95.86
2022-11-14T07:14:06.287Z,96.17
2022-11-14T07:15:06.266Z,95.96
2022-11-14T07:16:06.264Z,96.17
2022-11-14T07:17:06.246Z,96.27
2022-11-14T07:18:06.254Z,96.23
2022-11-14T07:19:06.234Z,95.81
2022-11-14T07:20:06.236Z,95.71
2022-11-14T07:21:06.205Z,95.92
2022-11-14T07:22:06.194Z,95.92
2022-11-14T07:23:06.205Z,95.71
2022-11-14T07:24:06.176Z,95.92
2022-11-14T07:25:06.154Z,96.08
2022-11-14T07:26:06.147Z,95.87
2022-11-14T07:27:06.134Z,95.77
2022-11-14T07:28:06.127Z,95.98
2022-11-14T07:29:06.134Z,96.19
2022-11-14T07:30:06.112Z,96.29
2022-11-14T07:31:06.634Z,96.49
2022-11-14T07:32:06.083Z,96.29
2022-11-14T07:33:06.074Z,96.08
2022-11-14T07:34:06.054Z,95.83
2022-11-14T07:35:06.063Z,96.14
2022-11-14T07:36:06.035Z,95.94
2022-11-14T07:37:06.021Z,95.73
2022-11-14T07:38:06.012Z,95.83
2022-11-14T07:39:05.992Z,95.83
2022-11-14T07:40:05.995Z,95.83
2022-11-14T07:41:06.004Z,95.52
2022-11-14T07:42:05.971Z,95.57
2022-11-14T07:43:05.952Z,95.37
2022-11-14T07:44:05.942Z,95.37
2022-11-14T07:45:05.930Z,95.74
2022-11-14T07:46:05.943Z,95.64
2022-11-14T07:47:05.902Z,95.12
2022-11-14T07:48:05.892Z,95.12
2022-11-14T07:49:05.881Z,94.71
2022-11-14T07:50:05.883Z,94.50
2022-11-14T07:51:05.863Z,94.71
2022-11-14T07:52:05.870Z,94.56
2022-11-14T07:53:05.840Z,94.25
2022-11-14T07:54:05.831Z,94.35
2022-11-14T07:55:05.822Z,94.77
2022-11-14T07:56:05.815Z,94.72
2022-11-14T07:57:05.806Z,94.93
2022-11-14T07:58:05.813Z,95.28
2022-11-14T07:59:05.771Z,95.14
2022-11-14T08:00:05.773Z,95.59
2022-11-14T08:01:05.779Z,96.11
2022-11-14T08:02:05.742Z,96.42
2022-11-14T08:03:05.722Z,96.42
2022-11-14T08:04:05.745Z,96.62
2022-11-14T08:05:05.701Z,97.25
2022-11-14T08:06:05.702Z,97.20
2022-11-14T08:07:05.761Z,97.09
2022-11-14T08:08:05.671Z,96.23
2022-11-14T08:09:05.676Z,95.71
2022-11-14T08:10:05.689Z,95.61
2022-11-14T08:11:05.658Z,95.61
2022-11-14T08:12:05.630Z,95.40
2022-11-14T08:13:30.407Z,95.20
2022-11-14T08:14:06.599Z,95.30
2022-11-14T08:15:05.591Z,95.81
2022-11-14T08:16:10.751Z,95.20
2022-11-14T08:17:06.594Z,95.40
2022-11-14T08:18:05.561Z,95.81
2022-11-14T08:19:05.551Z,95.77
2022-11-14T08:20:05.549Z,95.87
2022-11-14T08:21:05.520Z,94.95
2022-11-14T08:22:05.549Z,94.84
2022-11-14T08:23:05.507Z,95.05
2022-11-14T08:24:05.510Z,94.95
2022-11-14T08:25:05.479Z,94.95
2022-11-14T08:26:05.476Z,94.95
2022-11-14T08:27:05.458Z,94.80
2022-11-14T08:28:05.468Z,94.08
2022-11-14T08:29:05.438Z,93.98
2022-11-14T08:30:05.438Z,94.34
2022-11-14T08:31:05.420Z,93.41
2022-11-14T08:32:05.409Z,93.87
2022-11-14T08:33:05.418Z,94.24
2022-11-14T08:34:05.392Z,94.45
2022-11-14T08:35:05.380Z,93.41
2022-11-14T08:36:05.366Z,93.21
2022-11-14T08:37:05.347Z,92.86
2022-11-14T08:38:05.352Z,92.24
2022-11-14T08:39:05.348Z,92.03
2022-11-14T08:40:05.329Z,92.44
2022-11-14T08:41:05.308Z,92.44
2022-11-14T08:42:05.298Z,92.50
2022-11-14T08:43:05.288Z,91.89
2022-11-14T08:44:05.278Z,91.89
2022-11-14T08:45:05.279Z,92.34
2022-11-14T08:46:05.250Z,92.44
2022-11-14T08:47:05.238Z,92.86
2022-11-14T08:48:05.227Z,92.71
2022-11-14T08:49:05.206Z,92.30
2022-11-14T08:50:05.207Z,92.40
2022-11-14T08:51:05.205Z,92.30
2022-11-14T08:52:05.177Z,92.71
2022-11-14T08:53:05.167Z,92.30
2022-11-14T08:54:05.156Z,91.99
2022-11-14T08:55:05.147Z,91.85
2022-11-14T08:56:05.158Z,91.53
2022-11-14T08:57:05.116Z,92.32
2022-11-14T08:58:05.106Z,91.91
2022-11-14T08:59:05.087Z,91.70
2022-11-14T09:00:05.098Z,91.76
2022-11-14T09:01:05.068Z,91.25
2022-11-14T09:02:05.096Z,90.94
2022-11-14T09:03:05.081Z,90.83
2022-11-14T09:04:05.154Z,90.22
2022-11-14T09:05:05.026Z,89.60
2022-11-14T09:06:05.019Z,89.70
2022-11-14T09:07:05.074Z,89.70
2022-11-14T09:08:05.007Z,88.98
2022-11-14T09:09:04.974Z,88.27
2022-11-14T09:10:04.980Z,87.24
2022-11-14T09:11:06.044Z,87.34
2022-11-14T09:12:04.947Z,87.85
2022-11-14T09:13:04.948Z,88.17
2022-11-14T09:14:04.936Z,88.31
2022-11-14T09:15:04.907Z,89.34
2022-11-14T09:16:04.900Z,89.89
2022-11-14T09:17:06.222Z,90.67
2022-11-14T09:18:04.888Z,90.26
2022-11-14T09:19:04.886Z,90.57
2022-11-14T09:20:04.971Z,90.16
2022-11-14T09:21:04.839Z,91.08
2022-11-14T09:22:04.948Z,90.98
2022-11-14T09:23:04.823Z,90.57
2022-11-14T09:24:04.836Z,91.19
2022-11-14T09:25:04.798Z,91.64
2022-11-14T09:26:04.796Z,91.49
2022-11-14T09:27:04.774Z,91.19
2022-11-14T09:28:04.755Z,91.39
2022-11-14T09:29:04.795Z,91.39
2022-11-14T09:30:04.775Z,91.60
2022-11-14T09:31:04.724Z,91.19
2022-11-14T09:32:04.715Z,91.19
2022-11-14T09:33:10.104Z,92.05
2022-11-14T09:34:05.708Z,92.52
2022-11-14T09:35:04.684Z,91.91
2022-11-14T09:36:04.684Z,91.70
2022-11-14T09:37:04.653Z,91.25
2022-11-14T09:38:04.645Z,90.67
2022-11-14T09:39:04.626Z,91.49
2022-11-14T09:40:04.625Z,91.25
2022-11-14T09:41:04.655Z,90.48
2022-11-14T09:42:04.594Z,90.18
2022-11-14T09:43:04.585Z,89.36
2022-11-14T09:44:04.575Z,89.25
2022-11-14T09:45:04.556Z,90.08
2022-11-14T09:46:04.555Z,89.46
2022-11-14T09:47:04.554Z,89.36
2022-11-14T09:48:04.526Z,89.76
2022-11-14T09:49:04.508Z,90.03
2022-11-14T09:50:04.513Z,89.01
2022-11-14T09:51:04.494Z,89.21
2022-11-14T09:52:04.489Z,89.56
2022-11-14T09:53:04.485Z,90.03
2022-11-14T09:54:04.456Z,89.72
2022-11-14T09:55:04.442Z,89.42
2022-11-14T09:56:04.441Z,89.21
2022-11-14T09:57:04.436Z,89.89
2022-11-14T09:58:04.437Z,89.01
2022-11-14T09:59:04.852Z,88.90
2022-11-14T10:00:04.398Z,89.31
2022-11-14T10:01:09.139Z,89.17
2022-11-14T10:02:05.403Z,87.84
2022-11-14T10:03:04.359Z,87.90
2022-11-14T10:04:09.214Z,87.22
2022-11-14T10:05:05.334Z,87.49
2022-11-14T10:06:04.325Z,86.77
2022-11-14T10:07:04.364Z,85.54
2022-11-14T10:08:04.296Z,85.95
2022-11-14T10:09:04.317Z,85.80
2022-11-14T10:10:04.624Z,85.95
2022-11-14T10:11:04.263Z,87.22
2022-11-14T10:12:04.255Z,88.76
2022-11-14T10:13:04.244Z,87.43
2022-11-14T10:14:04.235Z,87.12
2022-11-14T10:15:04.266Z,87.63
2022-11-14T10:16:04.204Z,88.04
2022-11-14T10:17:07.955Z,88.49
2022-11-14T10:18:05.217Z,88.35
2022-11-14T10:19:04.175Z,88.04
2022-11-14T10:20:04.165Z,88.35
2022-11-14T10:21:04.173Z,87.73
2022-11-14T10:22:04.144Z,87.94
2022-11-14T10:23:04.126Z,87.26
2022-11-14T10:24:04.138Z,87.63
2022-11-14T10:25:04.103Z,87.49
2022-11-14T10:26:04.120Z,86.36
2022-11-14T10:27:04.086Z,85.09
2022-11-14T10:28:05.509Z,84.33
2022-11-14T10:29:04.065Z,84.58
2022-11-14T10:30:04.055Z,84.27
2022-11-14T10:31:04.046Z,83.86
2022-11-14T10:32:04.056Z,83.76
2022-11-14T10:33:04.016Z,84.47
2022-11-14T10:34:04.004Z,83.86
2022-11-14T10:35:03.996Z,83.51
2022-11-14T10:36:03.995Z,84.12
2022-11-14T10:37:11.036Z,83.41
2022-11-14T10:38:03.976Z,83.41
2022-11-14T10:39:03.946Z,83.06
2022-11-14T10:40:03.937Z,82.65
2022-11-14T10:41:03.929Z,82.76
2022-11-14T10:42:07.662Z,82.14
2022-11-14T10:43:03.920Z,81.63
2022-11-14T10:44:03.895Z,82.04
2022-11-14T10:45:03.887Z,82.45
2022-11-14T10:46:03.874Z,82.76
2022-11-14T10:47:03.868Z,81.90
2022-11-14T10:48:03.875Z,82.00
2022-11-14T10:49:03.836Z,81.18
2022-11-14T10:50:03.823Z,81.12
2022-11-14T10:51:03.809Z,82.10
2022-11-14T10:52:03.806Z,80.88
2022-11-14T10:53:03.785Z,80.67
2022-11-14T10:54:03.801Z,80.36
2022-11-14T10:55:03.769Z,80.88
2022-11-14T10:56:05.021Z,80.40
2022-11-14T10:57:03.778Z,81.52
2022-11-14T10:58:03.728Z,81.73
2022-11-14T10:59:03.718Z,81.32
2022-11-14T11:00:03.727Z,81.43
2022-11-14T11:01:03.758Z,81.70
2022-11-14T11:02:03.686Z,81.08
2022-11-14T11:03:03.675Z,81.08
2022-11-14T11:04:03.726Z,80.77
2022-11-14T11:05:03.648Z,80.33
2022-11-14T11:06:03.687Z,80.33
2022-11-14T11:07:03.657Z,80.08
2022-11-14T11:08:28.127Z,79.47
2022-11-14T11:09:04.643Z,79.06
2022-11-14T11:10:03.597Z,79.27
2022-11-14T11:11:03.593Z,78.61
2022-11-14T11:12:03.616Z,77.35
2022-11-14T11:13:03.662Z,77.72
2022-11-14T11:14:03.554Z,77.28
2022-11-14T11:15:03.535Z,75.65
2022-11-14T11:16:03.540Z,75.61
2022-11-14T11:17:03.506Z,75.34
2022-11-14T11:18:03.527Z,74.42
2022-11-14T11:19:03.486Z,73.40
2022-11-14T11:20:07.410Z,73.03
2022-11-14T11:21:03.503Z,74.29
2022-11-14T11:22:03.455Z,74.69
2022-11-14T11:23:03.634Z,74.49
2022-11-14T11:24:03.467Z,74.18
2022-11-14T11:25:03.416Z,74.63
2022-11-14T11:26:03.407Z,75.65
2022-11-14T11:27:03.396Z,75.65
2022-11-14T11:28:03.389Z,75.44
2022-11-14T11:29:03.409Z,75.41
2022-11-14T11:30:03.363Z,74.79
2022-11-14T11:31:03.347Z,74.45
2022-11-14T11:32:03.335Z,73.94
2022-11-14T11:33:03.325Z,73.74
2022-11-14T11:34:03.316Z,73.54
2022-11-14T11:35:03.326Z,73.57
2022-11-14T11:36:03.298Z,74.49
2022-11-14T11:37:03.285Z,74.15
2022-11-14T11:38:03.266Z,74.15
2022-11-14T11:39:03.258Z,74.18
2022-11-14T11:40:03.245Z,74.49
2022-11-14T11:41:03.266Z,74.79
2022-11-14T11:42:10.553Z,74.35
2022-11-14T11:44:00.549Z,74.52
2022-11-14T11:44:04.562Z,73.19
2022-11-14T11:45:03.188Z,72.17
2022-11-14T11:46:03.187Z,72.89
2022-11-14T11:47:03.186Z,72.34
2022-11-14T11:48:03.158Z,72.14
2022-11-14T11:49:03.148Z,72.24
2022-11-14T11:50:03.137Z,72.75
2022-11-14T11:51:03.136Z,72.01
2022-11-14T11:52:03.126Z,72.04
2022-11-14T11:53:03.096Z,72.31
2022-11-14T11:54:03.087Z,71.56
2022-11-14T11:55:03.076Z,71.19
2022-11-14T11:56:03.079Z,71.30
2022-11-14T11:57:03.055Z,71.77
2022-11-14T11:58:03.055Z,71.06
2022-11-14T11:59:03.035Z,71.36
2022-11-14T12:00:03.026Z,70.31
2022-11-14T12:01:03.006Z,70.14
2022-11-14T12:02:03.072Z,69.53
2022-11-14T12:03:03.130Z,69.02
2022-11-14T12:04:03.042Z,68.99
2022-11-14T12:05:02.973Z,68.41
2022-11-14T12:06:02.946Z,68.85
2022-11-14T12:07:02.960Z,69.09
2022-11-14T12:08:02.925Z,69.40
2022-11-14T12:09:02.922Z,69.19
2022-11-14T12:10:10.231Z,69.40
2022-11-14T12:11:03.887Z,69.49
2022-11-14T12:12:02.877Z,69.93
2022-11-14T12:13:02.868Z,69.23
2022-11-14T12:14:02.856Z,69.76
2022-11-14T12:15:02.849Z,70.48
2022-11-14T12:16:02.866Z,70.89
2022-11-14T12:17:02.826Z,70.86
2022-11-14T12:18:02.816Z,70.92
2022-11-14T12:19:02.799Z,70.28
2022-11-14T12:20:02.787Z,70.07
2022-11-14T12:21:02.779Z,70.07
2022-11-14T12:22:02.787Z,69.16
2022-11-14T12:23:02.755Z,68.96
2022-11-14T12:24:02.751Z,68.96
2022-11-14T12:25:02.747Z,69.26
2022-11-14T12:26:02.722Z,68.85
2022-11-14T12:27:02.712Z,69.77
2022-11-14T12:28:03.225Z,69.36
2022-11-14T12:29:02.690Z,68.44
2022-11-14T12:30:02.687Z,68.44
2022-11-14T12:31:02.681Z,68.48
2022-11-14T12:32:02.650Z,69.40
2022-11-14T12:33:02.669Z,69.09
2022-11-14T12:34:02.629Z,69.19
2022-11-14T12:35:02.683Z,69.49
2022-11-14T12:36:02.607Z,69.43
2022-11-14T12:37:03.033Z,69.32
2022-11-14T12:38:02.589Z,69.73
2022-11-14T12:39:02.602Z,69.84
2022-11-14T12:40:02.586Z,70.17
2022-11-14T12:41:02.549Z,70.38
2022-11-14T12:42:02.540Z,70.48
2022-11-14T12:43:02.537Z,70.58
2022-11-14T12:44:02.560Z,70.78
2022-11-14T12:45:02.522Z,70.89
2022-11-14T12:46:02.488Z,71.06
2022-11-14T12:47:02.485Z,71.02
2022-11-14T12:48:02.548Z,69.60
2022-11-14T12:49:02.477Z,69.46
2022-11-14T12:50:02.463Z,69.46
2022-11-14T12:51:02.446Z,68.75
2022-11-14T12:52:02.426Z,68.55